Tuesday, December 18, 2018, 4:15 PM EST
Back to Local

KHVN, Tweed-new Haven Airport

Location: East Haven, CT, United States Lat: 41.267
Local Time: 4:15 PM EST (21:15 GMT) Lon: -72.883
Time Zone: US/Eastern Elev: 13 ft

Show me the last for .
Show Coded

Time T Td Feel RH Dir Speed Gust Alt SLP Vis Weather Sky Remarks
2018-12-18 15:53 34 10 23 36 340° 13 20 30.03 30.03 10 CLR None
2018-12-18 14:53 34 10 22 36 330° 17 24 30.00 30.00 10 CLR Peak wind: 29 mph (26 kts) from 320° at 18 min
2018-12-18 13:53 34 9 22 34 330° 15 24 29.99 29.98 10 CLR None
2018-12-18 12:53 34 11 22 37 310° 14 23 29.98 29.98 10 CLR 6-hr Min Temp (1pm): 27.0°F
6-hr Max Temp (1pm): 34.0°F
2018-12-18 11:53 32 9 17 37 320° 18 31 29.96 29.96 10 CLR Peak wind: 35 mph (31 kts) from 320° at 59 min
2018-12-18 10:53 31 9 15 39 310° 21 33 29.96 29.96 10 CLR Peak wind: 35 mph (31 kts) from 340° at 01 min
2018-12-18 09:53 29 8 11 40 320° 21 41 29.96 29.96 10 CLR Peak wind: 41 mph (36 kts) from 320° at 51 min
2018-12-18 08:53 28 9 12 43 330° 15 33 29.96 29.96 10 CLR Peak wind: 33 mph (29 kts) from 300° at 45 min
2018-12-18 07:53 27 8 10 44 320° 15 33 29.93 29.93 10 CLR Peak wind: 33 mph (29 kts) from 320° at 48 min
2018-12-18 06:53 28 11 12 48 320° 15 29 29.90 29.89 10 CLR Peak wind: 31 mph (27 kts) from 340° at 01 min
24-hr Precip Total (7am): 0.01"
6-hr Min Temp (7am): 28.0°F
6-hr Max Temp (7am): 39.0°F
2018-12-18 05:53 28 12 12 50 330° 18 30 29.87 29.87 10 CLR Peak wind: 32 mph (28 kts) from 300° at 33 min
2018-12-18 04:53 28 13 12 52 330° 10 32 29.85 29.85 10 FEW041 Peak wind: 36 mph (32 kts) from 330° at 06 min
2018-12-18 03:53 31 13 16 46 340° 14 30 29.80 29.80 10 SCT049 Peak wind: 37 mph (33 kts) from 340° at 36 min
2018-12-18 02:53 34 19 21 53 330° 17 28 29.76 29.75 10 FEW047 Peak wind: 31 mph (27 kts) from 290° at 21 min
2018-12-18 01:53 36 22 23 56 320° 15 31 29.73 29.73 10 FEW041 SCT049 SCT060 Peak wind: 31 mph (27 kts) from 300° at 50 min
2018-12-18 00:53 39 25 28 56 350° 14 23 29.69 29.69 10 BKN043 BKN055 OVC070 6-hr Min Temp (1am): 39.0°F
6-hr Max Temp (1am): 43.0°F
2018-12-17 23:53 41 27 35 57 290° 9 - 29.69 29.68 10 BKN044 OVC065 24-hr Min Temp (12am): 39.0°F
24-hr Max Temp (12am): 46.0°F
2018-12-17 22:53 42 27 33 54 280° 14 21 29.69 29.69 10 BKN055 OVC070 None
2018-12-17 21:53 42 27 38 54 290° 7 - 29.69 29.69 10 OVC075 None
2018-12-17 20:53 43 28 35 55 280° 8 18 29.69 29.69 10 BKN065 OVC075 None
2018-12-17 19:53 43 30 39 59 290° 6 - 29.70 29.70 10 SCT043 OVC075 None
2018-12-17 18:53 43 29 35 57 300° 10 17 29.69 29.69 10 OVC060 6-hr Precip Total (7pm): 0.01"
6-hr Min Temp (7pm): 43.0°F
6-hr Max Temp (7pm): 46.0°F
2018-12-17 17:53 43 31 35 62 320° 10 16 29.68 29.68 10 OVC045 None
2018-12-17 16:53 44 32 40 62 330° 7 - 29.65 29.65 10 BKN045 OVC050 None

Support USWX by starting your Amazon purchase here.